createdAt,value
2023-05-02T00:02:32.543Z,9.29
2023-05-02T00:07:35.036Z,9.26
2023-05-02T00:12:37.419Z,9.14
2023-05-02T00:17:39.776Z,9.09
2023-05-02T00:22:42.176Z,8.95
2023-05-02T00:27:46.596Z,8.91
2023-05-02T00:32:49.349Z,8.85
2023-05-02T00:37:51.725Z,8.81
2023-05-02T00:42:54.087Z,8.76
2023-05-02T00:47:57.023Z,8.61
2023-05-02T00:52:59.457Z,8.50
2023-05-02T00:58:01.770Z,8.42
2023-05-02T01:03:04.223Z,8.30
2023-05-02T01:08:06.610Z,8.27
2023-05-02T01:13:08.988Z,8.20
2023-05-02T01:18:11.333Z,8.13
2023-05-02T01:23:14.024Z,8.13
2023-05-02T01:28:16.376Z,8.12
2023-05-02T01:33:18.995Z,8.09
2023-05-02T01:38:21.337Z,8.07
2023-05-02T01:43:23.661Z,8.11
2023-05-02T01:48:26.368Z,8.07
2023-05-02T01:53:28.821Z,8.07
2023-05-02T01:58:31.201Z,8.02
2023-05-02T02:03:33.586Z,8.02
2023-05-02T02:08:36.023Z,8.05
2023-05-02T02:13:38.352Z,8.01
2023-05-02T02:18:41.279Z,8.05
2023-05-02T02:23:43.756Z,8.07
2023-05-02T02:28:46.322Z,8.06
2023-05-02T02:33:49.053Z,8.10
2023-05-02T02:38:51.740Z,8.07
2023-05-02T02:43:54.525Z,8.09
2023-05-02T02:48:57.228Z,8.12
2023-05-02T02:53:59.651Z,8.13
2023-05-02T02:59:01.948Z,8.13
2023-05-02T03:04:04.369Z,8.11
2023-05-02T03:09:07.299Z,8.16
2023-05-02T03:14:09.620Z,8.14
2023-05-02T03:19:11.970Z,8.08
2023-05-02T03:24:17.107Z,8.04
2023-05-02T03:29:20.890Z,7.93
2023-05-02T03:34:23.586Z,7.86
2023-05-02T03:39:25.965Z,7.74
2023-05-02T03:44:28.310Z,7.67
2023-05-02T03:49:30.650Z,7.56
2023-05-02T03:54:33.194Z,7.51
2023-05-02T03:59:35.782Z,7.48
2023-05-02T04:04:38.345Z,7.42
2023-05-02T04:09:40.860Z,7.44
2023-05-02T04:14:43.592Z,7.52
2023-05-02T04:19:46.101Z,7.57
2023-05-02T04:24:48.489Z,7.70
2023-05-02T04:29:51.847Z,7.84
2023-05-02T04:34:54.662Z,7.98
2023-05-02T04:39:57.366Z,8.16
2023-05-02T04:44:59.831Z,8.30
2023-05-02T04:50:02.929Z,8.43
2023-05-02T04:55:05.473Z,8.53
2023-05-02T05:00:08.201Z,8.66
2023-05-02T05:05:10.897Z,8.88
2023-05-02T05:10:13.851Z,9.02
2023-05-02T05:15:16.714Z,9.21
2023-05-02T05:20:19.937Z,9.39
2023-05-02T05:25:22.895Z,9.50
2023-05-02T05:30:25.456Z,9.66
2023-05-02T05:35:28.835Z,9.83
2023-05-02T05:40:31.532Z,9.89
2023-05-02T05:45:34.356Z,10.00
2023-05-02T05:50:36.913Z,10.16
2023-05-02T05:55:41.567Z,10.18
2023-05-02T06:00:44.939Z,10.28
2023-05-02T06:05:47.697Z,10.32
2023-05-02T06:10:50.411Z,10.57
2023-05-02T06:15:53.105Z,10.66
2023-05-02T06:20:55.604Z,11.09
2023-05-02T06:25:58.550Z,11.36
2023-05-02T06:31:01.697Z,11.30
2023-05-02T06:36:04.618Z,11.76
2023-05-02T06:41:07.533Z,12.05
2023-05-02T06:46:10.252Z,12.69
2023-05-02T06:51:13.156Z,11.90
2023-05-02T06:56:15.968Z,12.31
2023-05-02T07:01:18.732Z,12.41
2023-05-02T07:06:21.859Z,12.36
2023-05-02T07:11:25.220Z,12.54
2023-05-02T07:16:27.585Z,13.18
2023-05-02T07:21:30.453Z,13.46
2023-05-02T07:26:32.965Z,13.54
2023-05-02T07:31:35.888Z,13.45
2023-05-02T07:36:38.769Z,13.62
2023-05-02T07:41:41.471Z,13.89
2023-05-02T07:46:44.430Z,13.78
2023-05-02T07:51:47.450Z,14.07
2023-05-02T07:56:50.362Z,13.59
2023-05-02T08:01:53.245Z,14.27
2023-05-02T08:06:56.368Z,14.64
2023-05-02T08:11:59.327Z,14.89
2023-05-02T08:17:02.053Z,15.58
2023-05-02T08:22:04.773Z,15.68
2023-05-02T08:27:08.030Z,15.78
2023-05-02T08:32:11.018Z,15.74
2023-05-02T08:37:13.544Z,16.09
2023-05-02T08:42:16.233Z,15.54
2023-05-02T08:47:18.957Z,15.49
2023-05-02T08:52:21.826Z,15.98
2023-05-02T08:57:24.626Z,15.86
2023-05-02T09:02:27.714Z,16.74
2023-05-02T09:07:30.932Z,16.99
2023-05-02T09:12:33.639Z,17.25
2023-05-02T09:17:36.542Z,16.96
2023-05-02T09:22:39.409Z,16.57
2023-05-02T09:27:42.166Z,16.85
2023-05-02T09:32:45.269Z,16.88
2023-05-02T09:37:48.115Z,17.08
2023-05-02T09:42:50.960Z,17.19
2023-05-02T09:47:54.082Z,17.54
2023-05-02T09:52:56.663Z,18.13
2023-05-02T09:57:59.506Z,17.49
2023-05-02T10:03:03.350Z,17.61
2023-05-02T10:08:05.750Z,17.55
2023-05-02T10:13:08.748Z,17.70
2023-05-02T10:18:13.211Z,17.35
2023-05-02T10:23:15.753Z,16.78
2023-05-02T10:28:18.111Z,16.17
2023-05-02T10:33:20.656Z,15.94
2023-05-02T10:38:24.798Z,15.80
2023-05-02T10:43:27.572Z,15.82
2023-05-02T10:48:30.342Z,15.52
2023-05-02T10:53:33.211Z,15.48
2023-05-02T10:58:35.923Z,14.52
2023-05-02T11:03:38.612Z,13.94
2023-05-02T11:08:42.485Z,13.23
2023-05-02T11:13:45.080Z,13.04
2023-05-02T11:18:47.889Z,13.43
2023-05-02T11:23:50.878Z,13.74
2023-05-02T11:28:53.718Z,13.99
2023-05-02T11:33:56.517Z,14.53
2023-05-02T11:38:59.306Z,15.02
2023-05-02T11:44:02.284Z,15.28
2023-05-02T11:49:07.015Z,15.86
2023-05-02T11:54:11.605Z,16.26
2023-05-02T11:59:14.422Z,17.16
2023-05-02T12:04:21.788Z,17.36
2023-05-02T12:09:24.280Z,17.11
2023-05-02T12:14:26.791Z,17.12
2023-05-02T12:19:29.511Z,16.86
2023-05-02T12:24:32.243Z,16.87
2023-05-02T12:29:34.934Z,17.37
2023-05-02T12:34:37.893Z,18.07
2023-05-02T12:39:40.924Z,17.97
2023-05-02T12:44:43.556Z,18.74
2023-05-02T12:49:45.929Z,18.49
2023-05-02T12:54:48.736Z,18.81
2023-05-02T12:59:51.096Z,18.65
2023-05-02T13:04:54.378Z,19.29
2023-05-02T13:09:57.209Z,19.80
2023-05-02T13:15:00.371Z,20.19
2023-05-02T13:20:04.031Z,19.16
2023-05-02T13:25:07.084Z,18.54
2023-05-02T13:30:10.202Z,17.57
2023-05-02T13:35:14.367Z,17.80
2023-05-02T13:40:16.986Z,17.97
2023-05-02T13:45:19.579Z,17.70
2023-05-02T13:50:22.060Z,17.10
2023-05-02T13:55:24.473Z,16.12
2023-05-02T14:00:28.858Z,13.45
2023-05-02T14:05:31.249Z,12.07
2023-05-02T14:10:33.945Z,11.80
2023-05-02T14:15:37.551Z,10.97
2023-05-02T14:20:40.212Z,10.26
2023-05-02T14:25:42.595Z,9.87
2023-05-02T14:30:45.339Z,9.97
2023-05-02T14:35:47.631Z,10.26
2023-05-02T14:40:50.340Z,10.72
2023-05-02T14:45:53.186Z,11.05
2023-05-02T14:50:56.968Z,11.21
2023-05-02T14:55:59.426Z,11.97
2023-05-02T15:01:02.194Z,12.85
2023-05-02T15:06:04.887Z,13.32
2023-05-02T15:11:07.598Z,13.58
2023-05-02T15:16:10.376Z,14.01
2023-05-02T15:21:12.806Z,14.07
2023-05-02T15:26:15.247Z,13.73
2023-05-02T15:31:18.261Z,13.43
2023-05-02T15:36:20.727Z,13.75
2023-05-02T15:41:24.003Z,14.13
2023-05-02T15:46:26.422Z,14.54
2023-05-02T15:51:29.484Z,14.75
2023-05-02T15:56:32.520Z,14.00
2023-05-02T16:01:35.325Z,13.77
2023-05-02T16:12:05.373Z,13.30
2023-05-02T16:17:07.829Z,12.97
2023-05-02T16:22:10.557Z,12.76
2023-05-02T16:27:12.951Z,12.65
2023-05-02T16:32:15.339Z,12.61
2023-05-02T16:37:17.708Z,12.12
2023-05-02T16:42:20.251Z,11.95
2023-05-02T16:47:22.593Z,11.22
2023-05-02T16:52:24.933Z,10.42
2023-05-02T16:57:27.502Z,10.10
2023-05-02T17:02:29.910Z,9.84
2023-05-02T17:07:32.638Z,9.71
2023-05-02T17:12:35.572Z,9.41
2023-05-02T17:17:37.930Z,9.55
2023-05-02T17:22:41.519Z,9.60
2023-05-02T17:27:43.862Z,9.67
2023-05-02T17:32:46.499Z,9.77
2023-05-02T17:37:48.899Z,9.71
2023-05-02T17:42:51.330Z,9.80
2023-05-02T17:47:53.765Z,9.74
2023-05-02T17:52:56.282Z,9.83
2023-05-02T17:57:59.409Z,9.88
2023-05-02T18:09:09.578Z,9.79
2023-05-02T18:14:14.566Z,9.78
2023-05-02T18:19:19.904Z,9.74
2023-05-02T18:24:28.747Z,9.79
2023-05-02T18:29:40.638Z,9.67
2023-05-02T18:34:46.478Z,9.55
2023-05-02T18:39:54.016Z,9.38
2023-05-02T18:45:08.573Z,9.27
2023-05-02T18:50:15.577Z,9.13
2023-05-02T18:55:25.282Z,8.97
2023-05-02T19:00:30.962Z,8.92
2023-05-02T19:05:38.024Z,8.71
2023-05-02T19:10:42.350Z,8.61
2023-05-02T19:15:46.942Z,8.60
2023-05-02T19:20:51.719Z,8.51
2023-05-02T19:25:57.425Z,8.40
2023-05-02T19:31:03.121Z,8.34
2023-05-02T19:36:11.336Z,8.32
2023-05-02T19:41:18.673Z,8.24
2023-05-02T19:46:23.528Z,8.17
2023-05-02T19:51:31.712Z,8.04
2023-05-02T19:56:39.163Z,7.98
2023-05-02T20:07:57.282Z,7.76
2023-05-02T20:13:01.802Z,7.69
2023-05-02T20:18:07.293Z,7.72
2023-05-02T20:23:12.035Z,7.72
2023-05-02T20:28:25.778Z,7.71
2023-05-02T20:33:43.757Z,7.57
2023-05-02T20:38:49.200Z,7.47
2023-05-02T20:43:56.014Z,7.40
2023-05-02T20:49:03.239Z,7.33
2023-05-02T20:54:06.356Z,7.25
2023-05-02T20:59:11.067Z,7.23
2023-05-02T21:10:01.295Z,7.11
2023-05-02T21:15:17.630Z,7.05
2023-05-02T21:20:29.305Z,7.02
2023-05-02T21:25:35.270Z,6.96
2023-05-02T21:30:38.653Z,6.93
2023-05-02T21:41:57.898Z,6.90
2023-05-02T21:47:08.335Z,6.86
2023-05-02T21:52:12.114Z,6.78
2023-05-02T21:57:15.648Z,6.71
2023-05-02T22:02:18.564Z,6.71
2023-05-02T22:07:36.541Z,6.68
2023-05-02T22:12:44.111Z,6.63
2023-05-02T22:17:48.639Z,6.68
2023-05-02T22:22:55.242Z,6.62
2023-05-02T22:28:01.720Z,6.64
2023-05-02T22:33:09.469Z,6.66
2023-05-02T22:38:17.972Z,6.56
2023-05-02T22:43:22.701Z,6.52
2023-05-02T22:48:26.503Z,6.52
2023-05-02T22:53:31.023Z,6.46
2023-05-02T22:58:36.223Z,6.39
2023-05-02T23:03:40.397Z,6.40
2023-05-02T23:08:44.884Z,6.32
2023-05-02T23:13:50.100Z,6.32
2023-05-02T23:18:55.057Z,6.36
2023-05-02T23:24:00.871Z,6.31
2023-05-02T23:29:10.176Z,6.29
2023-05-02T23:34:14.346Z,6.26
2023-05-02T23:39:21.746Z,6.25
2023-05-02T23:44:29.769Z,6.18
2023-05-02T23:49:37.304Z,6.08
2023-05-02T23:54:42.898Z,6.05
2023-05-02T23:59:46.384Z,6.04
